Terminal Aerodrome Forecast
Issued by NWS Birmingham, AL

Home | Current Version | Previous Version | Text Only | Print | Product List | Glossary On
Versions: 1 2 3 4 5 6 7 8 9 10 11 12 13 14 15 16 17 18
629
FTUS44 KBMX 281127 CCA
TAFBHM
TAF COR
KBHM 281127Z 2812/0112 14008KT P6SM SCT005 OVC015
     FM281600 16006KT P6SM VCSH OVC008
     FM281900 17010KT P6SM SCT007 OVC015
     FM282200 18010KT P6SM BKN035
     FM010400 19012G20KT P6SM OVC015=

USA.gov is the U.S. government's official web portal to all federal, state and local government web resources and services.